sensor_id;sensor_type;location;lat;lon;timestamp;temperature;humidity
31379;DHT22;61664;48.112;11.662;2022-11-11T00:01:16;8.30;76.50
31379;DHT22;61664;48.112;11.662;2022-11-11T00:03:43;8.20;76.20
31379;DHT22;61664;48.112;11.662;2022-11-11T00:06:14;8.40;76.80
31379;DHT22;61664;48.112;11.662;2022-11-11T00:08:45;8.20;76.80
31379;DHT22;61664;48.112;11.662;2022-11-11T00:11:13;8.20;76.90
31379;DHT22;61664;48.112;11.662;2022-11-11T00:13:42;8.20;76.90
31379;DHT22;61664;48.112;11.662;2022-11-11T00:16:15;8.20;77.00
31379;DHT22;61664;48.112;11.662;2022-11-11T00:18:44;8.20;77.40
31379;DHT22;61664;48.112;11.662;2022-11-11T00:21:31;8.20;77.00
31379;DHT22;61664;48.112;11.662;2022-11-11T00:24:07;8.20;76.90
31379;DHT22;61664;48.112;11.662;2022-11-11T00:27:17;8.20;77.00
31379;DHT22;61664;48.112;11.662;2022-11-11T00:29:47;8.20;77.00
31379;DHT22;61664;48.112;11.662;2022-11-11T00:32:14;8.20;76.80
31379;DHT22;61664;48.112;11.662;2022-11-11T00:34:51;8.20;76.90
31379;DHT22;61664;48.112;11.662;2022-11-11T00:37:39;8.30;77.00
31379;DHT22;61664;48.112;11.662;2022-11-11T00:40:07;8.20;76.80
31379;DHT22;61664;48.112;11.662;2022-11-11T00:42:35;8.20;76.80
31379;DHT22;61664;48.112;11.662;2022-11-11T00:45:02;8.20;76.80
31379;DHT22;61664;48.112;11.662;2022-11-11T00:47:30;8.20;76.80
31379;DHT22;61664;48.112;11.662;2022-11-11T00:53:07;8.10;76.70
31379;DHT22;61664;48.112;11.662;2022-11-11T00:55:36;8.10;76.80
31379;DHT22;61664;48.112;11.662;2022-11-11T00:58:03;8.10;76.80
31379;DHT22;61664;48.112;11.662;2022-11-11T01:00:30;8.10;76.80
31379;DHT22;61664;48.112;11.662;2022-11-11T01:02:58;8.10;76.80
31379;DHT22;61664;48.112;11.662;2022-11-11T01:05:25;8.10;76.70
31379;DHT22;61664;48.112;11.662;2022-11-11T01:07:52;8.00;76.50
31379;DHT22;61664;48.112;11.662;2022-11-11T01:10:19;8.00;76.50
31379;DHT22;61664;48.112;11.662;2022-11-11T01:13:28;8.00;76.60
31379;DHT22;61664;48.112;11.662;2022-11-11T01:16:08;7.90;76.50
31379;DHT22;61664;48.112;11.662;2022-11-11T01:18:38;7.90;76.00
31379;DHT22;61664;48.112;11.662;2022-11-11T01:21:15;7.90;77.10
31379;DHT22;61664;48.112;11.662;2022-11-11T01:23:44;7.90;76.60
31379;DHT22;61664;48.112;11.662;2022-11-11T01:26:22;7.80;76.60
31379;DHT22;61664;48.112;11.662;2022-11-11T01:28:57;7.80;76.40
31379;DHT22;61664;48.112;11.662;2022-11-11T01:31:26;7.80;76.60
31379;DHT22;61664;48.112;11.662;2022-11-11T01:33:53;7.80;76.70
31379;DHT22;61664;48.112;11.662;2022-11-11T01:36:22;7.70;76.70
31379;DHT22;61664;48.112;11.662;2022-11-11T01:38:53;7.80;76.70
31379;DHT22;61664;48.112;11.662;2022-11-11T01:41:28;7.70;76.70
31379;DHT22;61664;48.112;11.662;2022-11-11T01:46:44;7.70;76.70
31379;DHT22;61664;48.112;11.662;2022-11-11T01:52:15;7.70;76.70
31379;DHT22;61664;48.112;11.662;2022-11-11T01:55:00;7.60;76.30
31379;DHT22;61664;48.112;11.662;2022-11-11T01:57:33;7.60;76.20
31379;DHT22;61664;48.112;11.662;2022-11-11T02:00:10;7.60;76.70
31379;DHT22;61664;48.112;11.662;2022-11-11T02:05:20;7.60;76.80
31379;DHT22;61664;48.112;11.662;2022-11-11T02:10:39;7.60;76.80
31379;DHT22;61664;48.112;11.662;2022-11-11T02:13:15;7.60;75.60
31379;DHT22;61664;48.112;11.662;2022-11-11T02:16:00;7.60;76.40
31379;DHT22;61664;48.112;11.662;2022-11-11T02:18:28;7.60;76.60
31379;DHT22;61664;48.112;11.662;2022-11-11T02:20:58;7.50;76.50
31379;DHT22;61664;48.112;11.662;2022-11-11T02:23:36;7.60;76.50
31379;DHT22;61664;48.112;11.662;2022-11-11T02:26:09;7.50;75.80
31379;DHT22;61664;48.112;11.662;2022-11-11T02:28:39;7.50;76.50
31379;DHT22;61664;48.112;11.662;2022-11-11T02:31:08;7.50;75.00
31379;DHT22;61664;48.112;11.662;2022-11-11T02:33:35;7.40;76.30
31379;DHT22;61664;48.112;11.662;2022-11-11T02:36:02;7.40;76.30
31379;DHT22;61664;48.112;11.662;2022-11-11T02:38:31;7.40;76.40
31379;DHT22;61664;48.112;11.662;2022-11-11T02:40:58;7.30;76.40
31379;DHT22;61664;48.112;11.662;2022-11-11T02:43:44;7.30;76.50
31379;DHT22;61664;48.112;11.662;2022-11-11T02:46:11;7.30;76.50
31379;DHT22;61664;48.112;11.662;2022-11-11T02:48:38;7.30;76.50
31379;DHT22;61664;48.112;11.662;2022-11-11T02:51:05;7.30;76.50
31379;DHT22;61664;48.112;11.662;2022-11-11T02:53:32;7.30;76.50
31379;DHT22;61664;48.112;11.662;2022-11-11T02:55:59;7.30;76.50
31379;DHT22;61664;48.112;11.662;2022-11-11T02:58:27;7.30;76.40
31379;DHT22;61664;48.112;11.662;2022-11-11T03:00:54;7.40;76.40
31379;DHT22;61664;48.112;11.662;2022-11-11T03:03:21;7.20;76.30
31379;DHT22;61664;48.112;11.662;2022-11-11T03:05:48;7.20;76.30
31379;DHT22;61664;48.112;11.662;2022-11-11T03:08:16;7.20;76.30
31379;DHT22;61664;48.112;11.662;2022-11-11T03:10:43;7.20;76.30
31379;DHT22;61664;48.112;11.662;2022-11-11T03:13:09;7.10;76.20
31379;DHT22;61664;48.112;11.662;2022-11-11T03:15:36;7.10;76.20
31379;DHT22;61664;48.112;11.662;2022-11-11T03:18:03;7.10;76.20
31379;DHT22;61664;48.112;11.662;2022-11-11T03:20:30;7.10;76.20
31379;DHT22;61664;48.112;11.662;2022-11-11T03:23:16;7.10;76.10
31379;DHT22;61664;48.112;11.662;2022-11-11T03:25:45;7.10;76.20
31379;DHT22;61664;48.112;11.662;2022-11-11T03:28:17;7.00;76.20
31379;DHT22;61664;48.112;11.662;2022-11-11T03:30:48;7.00;76.30
31379;DHT22;61664;48.112;11.662;2022-11-11T03:33:16;7.00;76.40
31379;DHT22;61664;48.112;11.662;2022-11-11T03:35:47;7.00;76.40
31379;DHT22;61664;48.112;11.662;2022-11-11T03:38:14;7.00;76.10
31379;DHT22;61664;48.112;11.662;2022-11-11T03:40:55;6.90;76.20
31379;DHT22;61664;48.112;11.662;2022-11-11T03:43:27;6.90;76.00
31379;DHT22;61664;48.112;11.662;2022-11-11T03:46:03;6.80;76.00
31379;DHT22;61664;48.112;11.662;2022-11-11T03:48:32;6.90;76.00
31379;DHT22;61664;48.112;11.662;2022-11-11T03:51:00;6.90;76.10
31379;DHT22;61664;48.112;11.662;2022-11-11T03:53:27;6.90;76.20
31379;DHT22;61664;48.112;11.662;2022-11-11T03:55:54;6.80;76.20
31379;DHT22;61664;48.112;11.662;2022-11-11T03:58:21;6.80;76.20
31379;DHT22;61664;48.112;11.662;2022-11-11T04:00:49;6.80;76.20
31379;DHT22;61664;48.112;11.662;2022-11-11T04:03:18;6.80;76.20
31379;DHT22;61664;48.112;11.662;2022-11-11T04:06:04;6.80;76.20
31379;DHT22;61664;48.112;11.662;2022-11-11T04:08:50;6.70;76.40
31379;DHT22;61664;48.112;11.662;2022-11-11T04:11:42;6.70;76.50
31379;DHT22;61664;48.112;11.662;2022-11-11T04:14:13;6.70;76.10
31379;DHT22;61664;48.112;11.662;2022-11-11T04:16:59;6.70;76.60
31379;DHT22;61664;48.112;11.662;2022-11-11T04:19:26;6.60;76.60
31379;DHT22;61664;48.112;11.662;2022-11-11T04:22:11;6.60;76.70
31379;DHT22;61664;48.112;11.662;2022-11-11T04:24:38;6.60;76.80
31379;DHT22;61664;48.112;11.662;2022-11-11T04:27:23;6.60;77.00
31379;DHT22;61664;48.112;11.662;2022-11-11T04:29:50;6.60;77.20
31379;DHT22;61664;48.112;11.662;2022-11-11T04:32:20;6.60;77.30
31379;DHT22;61664;48.112;11.662;2022-11-11T04:35:10;6.60;77.40
31379;DHT22;61664;48.112;11.662;2022-11-11T04:37:47;6.60;77.50
31379;DHT22;61664;48.112;11.662;2022-11-11T04:40:16;6.60;77.30
31379;DHT22;61664;48.112;11.662;2022-11-11T04:43:01;6.60;77.70
31379;DHT22;61664;48.112;11.662;2022-11-11T04:45:28;6.50;77.60
31379;DHT22;61664;48.112;11.662;2022-11-11T04:50:32;6.60;77.50
31379;DHT22;61664;48.112;11.662;2022-11-11T04:53:02;6.60;77.30
31379;DHT22;61664;48.112;11.662;2022-11-11T04:55:31;6.60;77.40
31379;DHT22;61664;48.112;11.662;2022-11-11T04:58:18;6.60;77.30
31379;DHT22;61664;48.112;11.662;2022-11-11T05:00:47;6.60;77.30
31379;DHT22;61664;48.112;11.662;2022-11-11T05:03:14;6.60;77.30
31379;DHT22;61664;48.112;11.662;2022-11-11T05:05:59;6.60;77.30
31379;DHT22;61664;48.112;11.662;2022-11-11T05:08:47;6.60;76.30
31379;DHT22;61664;48.112;11.662;2022-11-11T05:11:32;6.60;77.10
31379;DHT22;61664;48.112;11.662;2022-11-11T05:14:02;6.60;77.00
31379;DHT22;61664;48.112;11.662;2022-11-11T05:17:00;6.60;77.20
31379;DHT22;61664;48.112;11.662;2022-11-11T05:19:45;6.60;77.20
31379;DHT22;61664;48.112;11.662;2022-11-11T05:22:39;6.50;77.10
31379;DHT22;61664;48.112;11.662;2022-11-11T05:25:07;6.50;76.70
31379;DHT22;61664;48.112;11.662;2022-11-11T05:27:56;6.50;77.20
31379;DHT22;61664;48.112;11.662;2022-11-11T05:30:24;6.50;77.30
31379;DHT22;61664;48.112;11.662;2022-11-11T05:32:54;6.50;77.90
31379;DHT22;61664;48.112;11.662;2022-11-11T05:35:21;6.50;77.40
31379;DHT22;61664;48.112;11.662;2022-11-11T05:37:49;6.50;77.60
31379;DHT22;61664;48.112;11.662;2022-11-11T05:40:35;6.40;77.70
31379;DHT22;61664;48.112;11.662;2022-11-11T05:43:02;6.40;77.70
31379;DHT22;61664;48.112;11.662;2022-11-11T05:45:29;6.50;77.80
31379;DHT22;61664;48.112;11.662;2022-11-11T05:48:00;6.50;77.80
31379;DHT22;61664;48.112;11.662;2022-11-11T05:50:28;6.50;77.70
31379;DHT22;61664;48.112;11.662;2022-11-11T05:52:55;6.50;77.90
31379;DHT22;61664;48.112;11.662;2022-11-11T05:55:21;6.40;77.90
31379;DHT22;61664;48.112;11.662;2022-11-11T05:57:48;6.50;77.90
31379;DHT22;61664;48.112;11.662;2022-11-11T06:00:16;6.50;78.00
31379;DHT22;61664;48.112;11.662;2022-11-11T06:02:43;6.60;78.00
31379;DHT22;61664;48.112;11.662;2022-11-11T06:05:10;6.50;77.90
31379;DHT22;61664;48.112;11.662;2022-11-11T06:07:38;6.60;77.90
31379;DHT22;61664;48.112;11.662;2022-11-11T06:10:08;6.60;77.90
31379;DHT22;61664;48.112;11.662;2022-11-11T06:12:54;6.60;77.80
31379;DHT22;61664;48.112;11.662;2022-11-11T06:15:31;6.60;77.80
31379;DHT22;61664;48.112;11.662;2022-11-11T06:17:59;6.60;77.70
31379;DHT22;61664;48.112;11.662;2022-11-11T06:20:26;6.60;77.60
31379;DHT22;61664;48.112;11.662;2022-11-11T06:22:53;6.60;77.60
31379;DHT22;61664;48.112;11.662;2022-11-11T06:25:33;6.60;77.60
31379;DHT22;61664;48.112;11.662;2022-11-11T06:28:19;6.70;77.70
31379;DHT22;61664;48.112;11.662;2022-11-11T06:30:45;6.70;77.60
31379;DHT22;61664;48.112;11.662;2022-11-11T06:33:17;6.70;77.80
31379;DHT22;61664;48.112;11.662;2022-11-11T06:35:44;6.70;77.80
31379;DHT22;61664;48.112;11.662;2022-11-11T06:38:11;6.60;77.80
31379;DHT22;61664;48.112;11.662;2022-11-11T06:40:39;6.70;77.90
31379;DHT22;61664;48.112;11.662;2022-11-11T06:43:08;6.70;78.10
31379;DHT22;61664;48.112;11.662;2022-11-11T06:45:35;6.70;78.20
31379;DHT22;61664;48.112;11.662;2022-11-11T06:48:03;6.70;78.20
31379;DHT22;61664;48.112;11.662;2022-11-11T06:50:31;6.80;78.10
31379;DHT22;61664;48.112;11.662;2022-11-11T06:53:10;6.80;78.20
31379;DHT22;61664;48.112;11.662;2022-11-11T06:55:38;6.80;77.30
31379;DHT22;61664;48.112;11.662;2022-11-11T06:58:10;6.80;78.90
31379;DHT22;61664;48.112;11.662;2022-11-11T07:00:39;6.80;78.10
31379;DHT22;61664;48.112;11.662;2022-11-11T07:03:08;6.90;78.50
31379;DHT22;61664;48.112;11.662;2022-11-11T07:05:37;6.90;78.70
31379;DHT22;61664;48.112;11.662;2022-11-11T07:08:09;7.00;78.80
31379;DHT22;61664;48.112;11.662;2022-11-11T07:10:39;7.10;79.00
31379;DHT22;61664;48.112;11.662;2022-11-11T07:13:09;7.10;79.00
31379;DHT22;61664;48.112;11.662;2022-11-11T07:15:36;7.20;79.10
31379;DHT22;61664;48.112;11.662;2022-11-11T07:18:03;7.30;79.20
31379;DHT22;61664;48.112;11.662;2022-11-11T07:20:31;7.30;79.20
31379;DHT22;61664;48.112;11.662;2022-11-11T07:22:58;7.40;79.30
31379;DHT22;61664;48.112;11.662;2022-11-11T07:25:25;7.50;79.30
31379;DHT22;61664;48.112;11.662;2022-11-11T07:27:52;7.60;79.30
31379;DHT22;61664;48.112;11.662;2022-11-11T07:30:24;7.70;79.40
31379;DHT22;61664;48.112;11.662;2022-11-11T07:32:52;7.90;79.50
31379;DHT22;61664;48.112;11.662;2022-11-11T07:35:20;7.90;79.50
31379;DHT22;61664;48.112;11.662;2022-11-11T07:37:47;8.10;79.60
31379;DHT22;61664;48.112;11.662;2022-11-11T07:40:16;8.10;79.70
31379;DHT22;61664;48.112;11.662;2022-11-11T07:42:44;8.20;79.70
31379;DHT22;61664;48.112;11.662;2022-11-11T07:45:12;8.20;79.60
31379;DHT22;61664;48.112;11.662;2022-11-11T07:47:42;8.30;79.60
31379;DHT22;61664;48.112;11.662;2022-11-11T07:50:10;8.40;79.60
31379;DHT22;61664;48.112;11.662;2022-11-11T07:52:38;8.50;79.70
31379;DHT22;61664;48.112;11.662;2022-11-11T07:55:05;8.60;79.70
31379;DHT22;61664;48.112;11.662;2022-11-11T07:57:32;8.70;80.00
31379;DHT22;61664;48.112;11.662;2022-11-11T07:59:59;8.80;80.30
31379;DHT22;61664;48.112;11.662;2022-11-11T08:02:26;8.90;80.70
31379;DHT22;61664;48.112;11.662;2022-11-11T08:04:52;9.00;81.10
31379;DHT22;61664;48.112;11.662;2022-11-11T08:07:22;9.20;81.40
31379;DHT22;61664;48.112;11.662;2022-11-11T08:09:50;9.40;81.20
31379;DHT22;61664;48.112;11.662;2022-11-11T08:12:17;9.50;81.00
31379;DHT22;61664;48.112;11.662;2022-11-11T08:15:22;9.70;80.70
31379;DHT22;61664;48.112;11.662;2022-11-11T08:17:49;9.80;80.40
31379;DHT22;61664;48.112;11.662;2022-11-11T08:20:16;9.90;80.60
31379;DHT22;61664;48.112;11.662;2022-11-11T08:22:43;10.00;81.00
31379;DHT22;61664;48.112;11.662;2022-11-11T08:25:30;10.20;81.20
31379;DHT22;61664;48.112;11.662;2022-11-11T08:27:59;10.30;81.40
31379;DHT22;61664;48.112;11.662;2022-11-11T08:30:27;10.50;81.60
31379;DHT22;61664;48.112;11.662;2022-11-11T08:32:58;10.70;81.70
31379;DHT22;61664;48.112;11.662;2022-11-11T08:35:46;10.90;80.80
31379;DHT22;61664;48.112;11.662;2022-11-11T08:38:13;11.00;80.70
31379;DHT22;61664;48.112;11.662;2022-11-11T08:40:40;11.10;79.90
31379;DHT22;61664;48.112;11.662;2022-11-11T08:43:07;11.20;79.50
31379;DHT22;61664;48.112;11.662;2022-11-11T08:45:34;11.40;79.00
31379;DHT22;61664;48.112;11.662;2022-11-11T08:48:01;11.40;78.40
31379;DHT22;61664;48.112;11.662;2022-11-11T08:50:28;11.50;78.70
31379;DHT22;61664;48.112;11.662;2022-11-11T08:52:55;11.70;79.90
31379;DHT22;61664;48.112;11.662;2022-11-11T08:55:22;11.80;80.60
31379;DHT22;61664;48.112;11.662;2022-11-11T08:58:00;12.00;81.10
31379;DHT22;61664;48.112;11.662;2022-11-11T09:00:28;12.20;77.40
31379;DHT22;61664;48.112;11.662;2022-11-11T09:03:00;12.40;79.70
31379;DHT22;61664;48.112;11.662;2022-11-11T09:05:28;12.60;78.10
31379;DHT22;61664;48.112;11.662;2022-11-11T09:07:55;12.70;79.40
31379;DHT22;61664;48.112;11.662;2022-11-11T09:10:26;12.80;79.00
31379;DHT22;61664;48.112;11.662;2022-11-11T09:12:57;12.90;79.20
31379;DHT22;61664;48.112;11.662;2022-11-11T09:15:24;13.00;77.90
31379;DHT22;61664;48.112;11.662;2022-11-11T09:17:52;13.20;78.80
31379;DHT22;61664;48.112;11.662;2022-11-11T09:20:19;13.30;78.40
31379;DHT22;61664;48.112;11.662;2022-11-11T09:22:51;13.40;78.10
31379;DHT22;61664;48.112;11.662;2022-11-11T09:25:19;13.50;77.20
31379;DHT22;61664;48.112;11.662;2022-11-11T09:27:56;13.60;77.00
31379;DHT22;61664;48.112;11.662;2022-11-11T09:30:25;13.60;74.70
31379;DHT22;61664;48.112;11.662;2022-11-11T09:32:53;13.70;76.90
31379;DHT22;61664;48.112;11.662;2022-11-11T09:35:26;13.70;76.70
31379;DHT22;61664;48.112;11.662;2022-11-11T09:37:58;13.80;76.70
31379;DHT22;61664;48.112;11.662;2022-11-11T09:40:37;13.80;75.30
31379;DHT22;61664;48.112;11.662;2022-11-11T09:43:40;13.90;76.60
31379;DHT22;61664;48.112;11.662;2022-11-11T09:46:30;14.10;73.10
31379;DHT22;61664;48.112;11.662;2022-11-11T09:52:18;14.30;71.40
31379;DHT22;61664;48.112;11.662;2022-11-11T09:55:02;14.40;76.50
31379;DHT22;61664;48.112;11.662;2022-11-11T09:57:54;14.50;76.90
31379;DHT22;61664;48.112;11.662;2022-11-11T10:00:27;14.70;74.20
31379;DHT22;61664;48.112;11.662;2022-11-11T10:03:05;14.80;76.20
31379;DHT22;61664;48.112;11.662;2022-11-11T10:14:02;15.50;69.40
31379;DHT22;61664;48.112;11.662;2022-11-11T10:19:49;15.70;74.20
31379;DHT22;61664;48.112;11.662;2022-11-11T10:22:34;15.80;69.90
31379;DHT22;61664;48.112;11.662;2022-11-11T10:27:41;16.00;72.40
31379;DHT22;61664;48.112;11.662;2022-11-11T10:32:59;16.30;70.40
31379;DHT22;61664;48.112;11.662;2022-11-11T10:35:32;16.40;71.30
31379;DHT22;61664;48.112;11.662;2022-11-11T10:40:50;16.70;70.80
31379;DHT22;61664;48.112;11.662;2022-11-11T10:43:27;16.80;65.90
31379;DHT22;61664;48.112;11.662;2022-11-11T10:51:35;17.20;68.20
31379;DHT22;61664;48.112;11.662;2022-11-11T10:54:31;17.30;71.00
31379;DHT22;61664;48.112;11.662;2022-11-11T10:57:20;17.60;66.70
31379;DHT22;61664;48.112;11.662;2022-11-11T11:00:11;17.90;73.50
31379;DHT22;61664;48.112;11.662;2022-11-11T11:02:57;18.20;71.50
31379;DHT22;61664;48.112;11.662;2022-11-11T11:05:46;18.40;66.80
31379;DHT22;61664;48.112;11.662;2022-11-11T11:08:33;18.50;68.20
31379;DHT22;61664;48.112;11.662;2022-11-11T11:11:09;18.60;65.40
31379;DHT22;61664;48.112;11.662;2022-11-11T11:13:59;18.70;67.20
31379;DHT22;61664;48.112;11.662;2022-11-11T11:16:32;18.70;63.70
31379;DHT22;61664;48.112;11.662;2022-11-11T11:19:23;18.70;67.40
31379;DHT22;61664;48.112;11.662;2022-11-11T11:21:52;18.80;63.90
31379;DHT22;61664;48.112;11.662;2022-11-11T11:27:00;18.80;67.00
31379;DHT22;61664;48.112;11.662;2022-11-11T11:34:52;19.00;63.00
31379;DHT22;61664;48.112;11.662;2022-11-11T11:37:23;19.10;59.90
31379;DHT22;61664;48.112;11.662;2022-11-11T11:40:00;19.10;64.70
31379;DHT22;61664;48.112;11.662;2022-11-11T11:42:37;19.10;61.30
31379;DHT22;61664;48.112;11.662;2022-11-11T11:45:40;19.00;63.00
31379;DHT22;61664;48.112;11.662;2022-11-11T11:48:39;18.90;61.30
31379;DHT22;61664;48.112;11.662;2022-11-11T11:51:32;18.90;60.50
31379;DHT22;61664;48.112;11.662;2022-11-11T12:06:25;18.50;61.60
31379;DHT22;61664;48.112;11.662;2022-11-11T12:12:36;18.40;62.50
31379;DHT22;61664;48.112;11.662;2022-11-11T12:29:23;17.90;66.10
31379;DHT22;61664;48.112;11.662;2022-11-11T12:34:57;17.80;62.10
31379;DHT22;61664;48.112;11.662;2022-11-11T12:44:07;17.70;64.00
31379;DHT22;61664;48.112;11.662;2022-11-11T12:53:00;17.80;67.40
31379;DHT22;61664;48.112;11.662;2022-11-11T12:58:37;17.70;63.20
31379;DHT22;61664;48.112;11.662;2022-11-11T13:04:59;17.80;67.60
31379;DHT22;61664;48.112;11.662;2022-11-11T13:10:21;17.90;64.90
31379;DHT22;61664;48.112;11.662;2022-11-11T13:13:28;17.90;67.40
31379;DHT22;61664;48.112;11.662;2022-11-11T13:16:03;18.00;64.20
31379;DHT22;61664;48.112;11.662;2022-11-11T13:18:54;18.00;66.70
31379;DHT22;61664;48.112;11.662;2022-11-11T13:21:56;18.00;62.50
31379;DHT22;61664;48.112;11.662;2022-11-11T13:24:26;17.90;63.40
31379;DHT22;61664;48.112;11.662;2022-11-11T13:27:05;17.90;66.30
31379;DHT22;61664;48.112;11.662;2022-11-11T13:33:12;17.70;62.50
31379;DHT22;61664;48.112;11.662;2022-11-11T13:35:51;17.60;64.20
31379;DHT22;61664;48.112;11.662;2022-11-11T13:38:27;17.50;65.70
31379;DHT22;61664;48.112;11.662;2022-11-11T13:41:00;17.40;65.00
31379;DHT22;61664;48.112;11.662;2022-11-11T13:43:45;17.20;65.50
31379;DHT22;61664;48.112;11.662;2022-11-11T13:49:01;16.90;63.20
31379;DHT22;61664;48.112;11.662;2022-11-11T13:51:41;16.80;66.00
31379;DHT22;61664;48.112;11.662;2022-11-11T13:56:51;16.60;63.90
31379;DHT22;61664;48.112;11.662;2022-11-11T13:59:31;16.60;66.80
31379;DHT22;61664;48.112;11.662;2022-11-11T14:12:48;16.40;66.80
31379;DHT22;61664;48.112;11.662;2022-11-11T14:18:38;16.50;65.70
31379;DHT22;61664;48.112;11.662;2022-11-11T14:21:07;16.50;65.10
31379;DHT22;61664;48.112;11.662;2022-11-11T14:23:39;16.50;68.00
31379;DHT22;61664;48.112;11.662;2022-11-11T14:31:27;16.50;66.30
31379;DHT22;61664;48.112;11.662;2022-11-11T14:34:32;16.50;68.40
31379;DHT22;61664;48.112;11.662;2022-11-11T14:37:49;16.40;67.20
31379;DHT22;61664;48.112;11.662;2022-11-11T14:40:31;16.40;66.60
31379;DHT22;61664;48.112;11.662;2022-11-11T14:46:08;16.30;66.20
31379;DHT22;61664;48.112;11.662;2022-11-11T14:48:57;16.20;67.90
31379;DHT22;61664;48.112;11.662;2022-11-11T14:51:47;16.20;67.60
31379;DHT22;61664;48.112;11.662;2022-11-11T14:57:02;16.10;66.90
31379;DHT22;61664;48.112;11.662;2022-11-11T14:59:34;16.00;68.40
31379;DHT22;61664;48.112;11.662;2022-11-11T15:02:03;15.90;68.90
31379;DHT22;61664;48.112;11.662;2022-11-11T15:04:43;15.80;68.90
31379;DHT22;61664;48.112;11.662;2022-11-11T15:07:43;15.80;69.10
31379;DHT22;61664;48.112;11.662;2022-11-11T15:10:44;15.80;67.10
31379;DHT22;61664;48.112;11.662;2022-11-11T15:25:30;15.40;67.60
31379;DHT22;61664;48.112;11.662;2022-11-11T15:37:13;14.90;68.00
31379;DHT22;61664;48.112;11.662;2022-11-11T15:39:48;14.80;69.60
31379;DHT22;61664;48.112;11.662;2022-11-11T15:42:38;14.60;69.10
31379;DHT22;61664;48.112;11.662;2022-11-11T15:47:46;14.40;68.90
31379;DHT22;61664;48.112;11.662;2022-11-11T15:52:54;14.20;70.10
31379;DHT22;61664;48.112;11.662;2022-11-11T15:55:31;14.10;69.90
31379;DHT22;61664;48.112;11.662;2022-11-11T15:58:22;13.90;70.30
31379;DHT22;61664;48.112;11.662;2022-11-11T16:00:52;13.90;69.50
31379;DHT22;61664;48.112;11.662;2022-11-11T16:03:33;13.80;70.70
31379;DHT22;61664;48.112;11.662;2022-11-11T16:06:09;13.70;70.60
31379;DHT22;61664;48.112;11.662;2022-11-11T16:08:47;13.60;70.70
31379;DHT22;61664;48.112;11.662;2022-11-11T16:11:18;13.50;70.50
31379;DHT22;61664;48.112;11.662;2022-11-11T16:13:57;13.40;71.20
31379;DHT22;61664;48.112;11.662;2022-11-11T16:16:38;13.30;70.40
31379;DHT22;61664;48.112;11.662;2022-11-11T16:19:33;13.30;70.90
31379;DHT22;61664;48.112;11.662;2022-11-11T16:22:23;13.20;70.70
31379;DHT22;61664;48.112;11.662;2022-11-11T16:24:54;13.10;70.90
31379;DHT22;61664;48.112;11.662;2022-11-11T16:27:27;13.00;71.40
31379;DHT22;61664;48.112;11.662;2022-11-11T16:30:17;12.90;71.20
31379;DHT22;61664;48.112;11.662;2022-11-11T16:32:55;12.80;70.40
31379;DHT22;61664;48.112;11.662;2022-11-11T16:35:35;12.70;71.40
31379;DHT22;61664;48.112;11.662;2022-11-11T16:38:05;12.70;70.80
31379;DHT22;61664;48.112;11.662;2022-11-11T16:43:18;12.50;71.60
31379;DHT22;61664;48.112;11.662;2022-11-11T16:46:00;12.40;70.90
31379;DHT22;61664;48.112;11.662;2022-11-11T16:51:31;12.30;71.80
31379;DHT22;61664;48.112;11.662;2022-11-11T16:54:18;12.20;71.60
31379;DHT22;61664;48.112;11.662;2022-11-11T16:56:51;12.10;71.70
31379;DHT22;61664;48.112;11.662;2022-11-11T16:59:46;12.00;72.10
31379;DHT22;61664;48.112;11.662;2022-11-11T17:02:19;12.00;71.60
31379;DHT22;61664;48.112;11.662;2022-11-11T17:04:50;11.90;72.30
31379;DHT22;61664;48.112;11.662;2022-11-11T17:07:37;11.80;72.40
31379;DHT22;61664;48.112;11.662;2022-11-11T17:10:10;11.80;72.00
31379;DHT22;61664;48.112;11.662;2022-11-11T17:12:38;11.70;72.60
31379;DHT22;61664;48.112;11.662;2022-11-11T17:15:15;11.70;72.80
31379;DHT22;61664;48.112;11.662;2022-11-11T17:17:46;11.60;72.80
31379;DHT22;61664;48.112;11.662;2022-11-11T17:20:15;11.60;72.80
31379;DHT22;61664;48.112;11.662;2022-11-11T17:25:18;11.50;72.90
31379;DHT22;61664;48.112;11.662;2022-11-11T17:27:45;11.50;73.10
31379;DHT22;61664;48.112;11.662;2022-11-11T17:30:12;11.40;73.10
31379;DHT22;61664;48.112;11.662;2022-11-11T17:32:40;11.40;73.20
31379;DHT22;61664;48.112;11.662;2022-11-11T17:35:07;11.30;73.20
31379;DHT22;61664;48.112;11.662;2022-11-11T17:37:37;11.30;73.20
31379;DHT22;61664;48.112;11.662;2022-11-11T17:40:06;11.30;73.70
31379;DHT22;61664;48.112;11.662;2022-11-11T17:42:35;11.20;73.20
31379;DHT22;61664;48.112;11.662;2022-11-11T17:45:04;11.20;73.30
31379;DHT22;61664;48.112;11.662;2022-11-11T17:47:32;11.10;73.20
31379;DHT22;61664;48.112;11.662;2022-11-11T17:49:58;11.00;73.70
31379;DHT22;61664;48.112;11.662;2022-11-11T17:52:26;11.00;73.30
31379;DHT22;61664;48.112;11.662;2022-11-11T17:54:53;11.00;73.30
31379;DHT22;61664;48.112;11.662;2022-11-11T17:57:19;11.00;73.40
31379;DHT22;61664;48.112;11.662;2022-11-11T17:59:46;10.90;73.50
31379;DHT22;61664;48.112;11.662;2022-11-11T18:02:13;10.90;73.60
31379;DHT22;61664;48.112;11.662;2022-11-11T18:04:40;10.90;73.70
31379;DHT22;61664;48.112;11.662;2022-11-11T18:07:07;10.80;73.60
31379;DHT22;61664;48.112;11.662;2022-11-11T18:09:36;10.80;73.60
31379;DHT22;61664;48.112;11.662;2022-11-11T18:12:03;10.80;73.60
31379;DHT22;61664;48.112;11.662;2022-11-11T18:14:31;10.80;73.60
31379;DHT22;61664;48.112;11.662;2022-11-11T18:16:57;10.80;73.60
31379;DHT22;61664;48.112;11.662;2022-11-11T18:19:24;10.70;73.60
31379;DHT22;61664;48.112;11.662;2022-11-11T18:21:51;10.70;73.70
31379;DHT22;61664;48.112;11.662;2022-11-11T18:24:18;10.60;73.70
31379;DHT22;61664;48.112;11.662;2022-11-11T18:26:45;10.60;73.70
31379;DHT22;61664;48.112;11.662;2022-11-11T18:29:12;10.60;73.80
31379;DHT22;61664;48.112;11.662;2022-11-11T18:31:38;10.60;73.90
31379;DHT22;61664;48.112;11.662;2022-11-11T18:34:05;10.60;74.00
31379;DHT22;61664;48.112;11.662;2022-11-11T18:36:32;10.60;74.10
31379;DHT22;61664;48.112;11.662;2022-11-11T18:38:59;10.50;74.20
31379;DHT22;61664;48.112;11.662;2022-11-11T18:41:26;10.50;74.30
31379;DHT22;61664;48.112;11.662;2022-11-11T18:43:53;10.50;74.50
31379;DHT22;61664;48.112;11.662;2022-11-11T18:46:22;10.50;74.80
31379;DHT22;61664;48.112;11.662;2022-11-11T18:48:56;10.60;75.00
31379;DHT22;61664;48.112;11.662;2022-11-11T18:51:26;10.50;74.70
31379;DHT22;61664;48.112;11.662;2022-11-11T18:53:56;10.50;74.90
31379;DHT22;61664;48.112;11.662;2022-11-11T18:56:25;10.60;75.00
31379;DHT22;61664;48.112;11.662;2022-11-11T18:58:54;10.60;74.80
31379;DHT22;61664;48.112;11.662;2022-11-11T19:01:25;10.60;74.60